Time;durP1;ratioP1;P1;durP2;ratioP2;P2;SDS_P1;SDS_P2;PMS_P1;PMS_P2;Temp;Humidity;BMP_temperature;BMP_pressure;BME280_temperature;BME280_humidity;BME280_pressure;Samples;Min_cycle;Max_cycle;Signal;HPM_P1;HPM_P2
2024/02/29 00:00:59;;;;;;;0.10;0.10;;;;;;;;;;5084510;28;20281;-66
2024/02/29 00:03:24;;;;;;;0.15;0.15;;;;;;;;;;5090964;28;20527;-66
2024/02/29 00:05:49;;;;;;;0.00;0.00;;;;;;;;;;5092463;28;20349;-66
2024/02/29 00:08:15;;;;;;;0.20;0.20;;;;;;;;;;5073919;28;20253;-66
2024/02/29 00:10:41;;;;;;;1.50;0.82;;;;;;;;;;5085614;28;20034;-66
2024/02/29 00:13:06;;;;;;;0.43;0.43;;;;;;;;;;5092265;28;20020;-66
2024/02/29 00:15:31;;;;;;;0.10;0.10;;;;;;;;;;5092278;28;20036;-66
2024/02/29 00:17:57;;;;;;;0.20;0.20;;;;;;;;;;5086733;28;20315;-66
2024/02/29 00:20:22;;;;;;;0.03;0.03;;;;;;;;;;5072837;28;20044;-66
2024/02/29 00:22:48;;;;;;;0.40;0.40;;;;;;;;;;5081102;28;20111;-66
2024/02/29 00:25:13;;;;;;;0.50;0.50;;;;;;;;;;5076905;28;20120;-66
2024/02/29 00:27:38;;;;;;;0.98;0.63;;;;;;;;;;5090008;28;20268;-67
2024/02/29 00:30:04;;;;;;;0.95;0.95;;;;;;;;;;5087345;28;20032;-67
2024/02/29 00:32:29;;;;;;;0.73;0.73;;;;;;;;;;5079155;28;20066;-66
2024/02/29 00:34:54;;;;;;;0.22;0.22;;;;;;;;;;5092292;28;20047;-67
2024/02/29 00:37:20;;;;;;;0.00;0.00;;;;;;;;;;5077434;28;20107;-67
2024/02/29 00:39:45;;;;;;;0.77;0.68;;;;;;;;;;5076206;28;20028;-66
2024/02/29 00:42:10;;;;;;;0.10;0.10;;;;;;;;;;5092313;28;20031;-66
2024/02/29 00:44:36;;;;;;;0.77;0.77;;;;;;;;;;5084899;28;20749;-66
2024/02/29 00:47:01;;;;;;;2.25;0.73;;;;;;;;;;5081241;28;20740;-66
2024/02/29 00:49:26;;;;;;;1.17;1.08;;;;;;;;;;5093780;28;20529;-66
2024/02/29 00:51:52;;;;;;;1.15;0.73;;;;;;;;;;5095423;28;20016;-66
2024/02/29 00:54:17;;;;;;;0.10;0.10;;;;;;;;;;5089965;28;20031;-66
2024/02/29 00:56:43;;;;;;;0.15;0.15;;;;;;;;;;5076744;28;20031;-66
2024/02/29 00:59:08;;;;;;;0.40;0.40;;;;;;;;;;5079154;28;20024;-67
2024/02/29 01:01:40;;;;;;;0.47;0.43;;;;;;;;;;5075572;28;20293;-66
2024/02/29 01:04:05;;;;;;;0.57;0.57;;;;;;;;;;5092330;28;20260;-66
2024/02/29 01:06:30;;;;;;;0.45;0.38;;;;;;;;;;5076908;28;20086;-66
2024/02/29 01:08:56;;;;;;;0.57;0.57;;;;;;;;;;5075834;28;20033;-66
2024/02/29 01:11:21;;;;;;;1.23;0.60;;;;;;;;;;5078069;28;20031;-66
2024/02/29 01:13:46;;;;;;;0.40;0.40;;;;;;;;;;5085528;28;20812;-66
2024/02/29 01:16:12;;;;;;;0.43;0.43;;;;;;;;;;5075379;28;20043;-66
2024/02/29 01:18:37;;;;;;;0.45;0.45;;;;;;;;;;5087599;28;20541;-67
2024/02/29 01:21:02;;;;;;;2.10;0.73;;;;;;;;;;5094924;28;20024;-66
2024/02/29 01:23:27;;;;;;;0.38;0.38;;;;;;;;;;5077837;28;20103;-67
2024/02/29 01:25:53;;;;;;;0.20;0.20;;;;;;;;;;5094869;28;20062;-66
2024/02/29 01:28:18;;;;;;;0.83;0.57;;;;;;;;;;5094918;28;20020;-66
2024/02/29 01:30:43;;;;;;;0.50;0.50;;;;;;;;;;5093074;28;20847;-66
2024/02/29 01:33:08;;;;;;;1.65;0.75;;;;;;;;;;5094776;28;20752;-66
2024/02/29 01:35:33;;;;;;;0.10;0.10;;;;;;;;;;5094404;28;20020;-66
2024/02/29 01:37:59;;;;;;;1.08;0.75;;;;;;;;;;5075092;28;20249;-66
2024/02/29 01:40:24;;;;;;;0.15;0.15;;;;;;;;;;5088917;28;20116;-67
2024/02/29 01:42:50;;;;;;;0.38;0.38;;;;;;;;;;5085336;28;20021;-66
2024/02/29 01:45:16;;;;;;;2.10;0.88;;;;;;;;;;5075087;28;20020;-66
2024/02/29 01:47:42;;;;;;;0.08;0.08;;;;;;;;;;5076128;28;20512;-67
2024/02/29 01:50:08;;;;;;;0.60;0.60;;;;;;;;;;5092867;28;20059;-66
2024/02/29 01:52:36;;;;;;;0.50;0.40;;;;;;;;;;5094640;28;20063;-67
2024/02/29 01:55:02;;;;;;;0.52;0.52;;;;;;;;;;5085805;28;20472;-66
2024/02/29 01:57:28;;;;;;;0.28;0.28;;;;;;;;;;5085943;28;20376;-66
2024/02/29 01:59:53;;;;;;;0.10;0.10;;;;;;;;;;5094128;28;20028;-66
2024/02/29 02:02:19;;;;;;;0.60;0.60;;;;;;;;;;5074427;28;20040;-66
2024/02/29 02:04:45;;;;;;;0.30;0.30;;;;;;;;;;5093570;28;20780;-66
2024/02/29 02:07:10;;;;;;;0.80;0.63;;;;;;;;;;5088338;28;20012;-66
2024/02/29 02:09:35;;;;;;;0.87;0.87;;;;;;;;;;5074288;28;20395;-66
2024/02/29 02:12:01;;;;;;;0.10;0.10;;;;;;;;;;5074217;28;20253;-66
2024/02/29 02:14:27;;;;;;;0.45;0.45;;;;;;;;;;5075300;28;20261;-66
2024/02/29 02:16:52;;;;;;;0.30;0.30;;;;;;;;;;5057299;28;20016;-66
2024/02/29 02:19:17;;;;;;;0.30;0.30;;;;;;;;;;5078684;28;20050;-67
2024/02/29 02:21:43;;;;;;;0.20;0.20;;;;;;;;;;5093729;28;20334;-67
2024/02/29 02:24:08;;;;;;;0.10;0.10;;;;;;;;;;5074599;28;20455;-67
2024/02/29 02:26:33;;;;;;;0.60;0.30;;;;;;;;;;5087166;28;20028;-66
2024/02/29 02:28:59;;;;;;;0.10;0.10;;;;;;;;;;5093644;28;20024;-67
2024/02/29 02:31:25;;;;;;;2.08;1.88;;;;;;;;;;5073265;28;20731;-67
2024/02/29 02:33:50;;;;;;;0.20;0.20;;;;;;;;;;5079842;28;20059;-66
2024/02/29 02:36:15;;;;;;;0.30;0.30;;;;;;;;;;5076066;28;20021;-67
2024/02/29 02:38:40;;;;;;;0.10;0.10;;;;;;;;;;5085427;28;20049;-66
2024/02/29 02:41:06;;;;;;;0.10;0.10;;;;;;;;;;5091978;28;20760;-67
2024/02/29 02:43:31;;;;;;;0.20;0.20;;;;;;;;;;5092418;28;20020;-66
2024/02/29 02:45:56;;;;;;;0.10;0.10;;;;;;;;;;5073723;28;20052;-67
2024/02/29 02:48:21;;;;;;;0.17;0.17;;;;;;;;;;5073567;28;20257;-67
2024/02/29 02:50:47;;;;;;;0.10;0.10;;;;;;;;;;5081115;28;20056;-67
2024/02/29 02:53:12;;;;;;;0.25;0.25;;;;;;;;;;5073486;28;20265;-67
2024/02/29 02:55:37;;;;;;;0.80;0.80;;;;;;;;;;5073576;28;20400;-67
2024/02/29 02:58:03;;;;;;;0.20;0.20;;;;;;;;;;5083059;28;20032;-67
2024/02/29 03:00:28;;;;;;;0.10;0.10;;;;;;;;;;5088753;28;20027;-66
2024/02/29 03:02:53;;;;;;;0.32;0.32;;;;;;;;;;5075189;28;20086;-67
2024/02/29 03:05:20;;;;;;;0.13;0.13;;;;;;;;;;5091806;28;20059;-67
2024/02/29 03:07:45;;;;;;;0.38;0.38;;;;;;;;;;5073543;28;20111;-67
2024/02/29 03:10:10;;;;;;;0.05;0.05;;;;;;;;;;5089311;28;20037;-66
2024/02/29 03:12:37;;;;;;;0.35;0.35;;;;;;;;;;5092825;28;20106;-67
2024/02/29 03:15:02;;;;;;;0.30;0.30;;;;;;;;;;5087562;28;20020;-66
2024/02/29 03:17:29;;;;;;;0.70;0.70;;;;;;;;;;5073226;28;20122;-66
2024/02/29 03:19:54;;;;;;;0.15;0.15;;;;;;;;;;5073388;28;20521;-66
2024/02/29 03:22:19;;;;;;;0.10;0.10;;;;;;;;;;5087804;28;20016;-66
2024/02/29 03:24:45;;;;;;;2.08;0.45;;;;;;;;;;5091013;28;20318;-66
2024/02/29 03:27:11;;;;;;;0.20;0.20;;;;;;;;;;5088931;28;20483;-67
2024/02/29 03:29:36;;;;;;;0.57;0.57;;;;;;;;;;5073204;28;20013;-66
2024/02/29 03:32:01;;;;;;;0.10;0.10;;;;;;;;;;5074264;28;20082;-67
2024/02/29 03:34:27;;;;;;;0.45;0.22;;;;;;;;;;5080085;28;20028;-67
2024/02/29 03:36:52;;;;;;;1.13;0.60;;;;;;;;;;5073305;28;20416;-67
2024/02/29 03:39:17;;;;;;;0.60;0.60;;;;;;;;;;5074659;28;20028;-66
2024/02/29 03:41:43;;;;;;;0.20;0.20;;;;;;;;;;5090832;28;20056;-68
2024/02/29 03:44:08;;;;;;;1.20;0.33;;;;;;;;;;5092538;28;20265;-67
2024/02/29 03:46:33;;;;;;;0.27;0.20;;;;;;;;;;5081827;28;20253;-67
2024/02/29 03:48:59;;;;;;;0.10;0.10;;;;;;;;;;5072897;28;20311;-68
2024/02/29 03:51:24;;;;;;;2.38;0.70;;;;;;;;;;5089719;28;20317;-68
2024/02/29 03:53:50;;;;;;;0.03;0.03;;;;;;;;;;5073638;28;20021;-66
2024/02/29 03:56:15;;;;;;;0.10;0.10;;;;;;;;;;5072794;28;20024;-66
2024/02/29 03:58:40;;;;;;;0.10;0.10;;;;;;;;;;5080703;28;20097;-67
2024/02/29 04:01:10;;;;;;;0.10;0.10;;;;;;;;;;5081534;28;20103;-67
2024/02/29 04:03:35;;;;;;;0.35;0.35;;;;;;;;;;5076145;28;20083;-67
2024/02/29 04:06:00;;;;;;;0.30;0.30;;;;;;;;;;5093638;28;20446;-68
2024/02/29 04:08:26;;;;;;;0.10;0.10;;;;;;;;;;5095399;28;20012;-67
2024/02/29 04:10:51;;;;;;;0.10;0.10;;;;;;;;;;5089710;28;20260;-67
2024/02/29 04:13:20;;;;;;;0.93;0.85;;;;;;;;;;5077581;28;20272;-68
2024/02/29 04:15:45;;;;;;;0.10;0.10;;;;;;;;;;5090888;28;20112;-67
2024/02/29 04:18:11;;;;;;;0.98;0.65;;;;;;;;;;5092851;28;20056;-67
2024/02/29 04:20:36;;;;;;;0.10;0.10;;;;;;;;;;5076253;28;20021;-67
2024/02/29 04:23:01;;;;;;;0.67;0.67;;;;;;;;;;5082365;28;20012;-67
2024/02/29 04:25:27;;;;;;;0.57;0.57;;;;;;;;;;5094355;28;20310;-67
2024/02/29 04:27:52;;;;;;;0.00;0.00;;;;;;;;;;5093870;28;20456;-67
2024/02/29 04:30:18;;;;;;;0.30;0.30;;;;;;;;;;5081097;28;20032;-68
2024/02/29 04:32:43;;;;;;;0.10;0.10;;;;;;;;;;5077120;28;20386;-67
2024/02/29 04:35:11;;;;;;;0.03;0.03;;;;;;;;;;5091633;28;20534;-67
2024/02/29 04:37:39;;;;;;;0.43;0.43;;;;;;;;;;5076153;28;20150;-67
2024/02/29 04:40:06;;;;;;;1.77;0.75;;;;;;;;;;5076261;28;20024;-68
2024/02/29 04:42:31;;;;;;;0.30;0.30;;;;;;;;;;5088176;28;20460;-68
2024/02/29 04:44:57;;;;;;;0.60;0.60;;;;;;;;;;5095916;28;20024;-67
2024/02/29 04:47:23;;;;;;;0.38;0.38;;;;;;;;;;5094072;28;20026;-67
2024/02/29 04:49:48;;;;;;;1.10;0.57;;;;;;;;;;5083401;28;20415;-67
2024/02/29 04:52:14;;;;;;;0.38;0.38;;;;;;;;;;5077639;28;20050;-68
2024/02/29 04:54:39;;;;;;;0.28;0.28;;;;;;;;;;5088145;28;20020;-68
2024/02/29 04:57:04;;;;;;;0.10;0.10;;;;;;;;;;5095510;28;20073;-68
2024/02/29 04:59:31;;;;;;;0.17;0.17;;;;;;;;;;5092199;28;20399;-68
2024/02/29 05:01:56;;;;;;;0.85;0.85;;;;;;;;;;5075843;28;20450;-68
2024/02/29 05:04:22;;;;;;;0.13;0.13;;;;;;;;;;5075457;28;20040;-68
2024/02/29 05:06:47;;;;;;;0.20;0.20;;;;;;;;;;5076293;28;20032;-67
2024/02/29 05:09:12;;;;;;;0.00;0.00;;;;;;;;;;5082313;28;20803;-68
2024/02/29 05:11:37;;;;;;;0.52;0.52;;;;;;;;;;5094760;28;20756;-68
2024/02/29 05:14:03;;;;;;;0.10;0.10;;;;;;;;;;5074859;28;20074;-67
2024/02/29 05:16:28;;;;;;;0.45;0.35;;;;;;;;;;5081174;28;20061;-67
2024/02/29 05:18:53;;;;;;;0.57;0.57;;;;;;;;;;5085928;28;20082;-67
2024/02/29 05:21:20;;;;;;;0.33;0.33;;;;;;;;;;5075266;28;20341;-68
2024/02/29 05:23:47;;;;;;;0.20;0.20;;;;;;;;;;5076609;28;20307;-67
2024/02/29 05:26:12;;;;;;;0.75;0.75;;;;;;;;;;5075405;28;20392;-67
2024/02/29 05:28:37;;;;;;;0.20;0.20;;;;;;;;;;5075212;28;20027;-67
2024/02/29 05:31:03;;;;;;;0.60;0.60;;;;;;;;;;5091155;28;20043;-67
2024/02/29 05:33:29;;;;;;;0.10;0.10;;;;;;;;;;5092748;28;20279;-67
2024/02/29 05:35:54;;;;;;;0.17;0.17;;;;;;;;;;5094641;28;20119;-67
2024/02/29 05:38:19;;;;;;;0.10;0.10;;;;;;;;;;5081645;28;20020;-78
2024/02/29 05:40:44;;;;;;;0.40;0.40;;;;;;;;;;5076472;28;20273;-68
2024/02/29 05:43:10;;;;;;;0.10;0.10;;;;;;;;;;5075201;28;20120;-67
2024/02/29 05:45:35;;;;;;;0.10;0.10;;;;;;;;;;5074943;28;20020;-67
2024/02/29 05:48:00;;;;;;;0.50;0.50;;;;;;;;;;5075027;28;20277;-67
2024/02/29 05:50:26;;;;;;;0.35;0.35;;;;;;;;;;5074908;28;20284;-67
2024/02/29 05:52:51;;;;;;;0.20;0.20;;;;;;;;;;5075055;28;20073;-67
2024/02/29 05:55:17;;;;;;;0.30;0.30;;;;;;;;;;5074664;28;20101;-67
2024/02/29 05:57:42;;;;;;;0.28;0.28;;;;;;;;;;5074909;28;20016;-67
2024/02/29 06:00:07;;;;;;;0.10;0.10;;;;;;;;;;5074558;28;20020;-67
2024/02/29 06:02:33;;;;;;;0.10;0.10;;;;;;;;;;5074610;28;20121;-67
2024/02/29 06:04:58;;;;;;;0.40;0.40;;;;;;;;;;5074551;28;20091;-67
2024/02/29 06:07:24;;;;;;;1.65;0.57;;;;;;;;;;5074601;28;20322;-67
2024/02/29 06:09:49;;;;;;;0.10;0.10;;;;;;;;;;5074727;28;20027;-67
2024/02/29 06:12:14;;;;;;;0.50;0.50;;;;;;;;;;5074286;28;20020;-67
2024/02/29 06:14:40;;;;;;;0.30;0.30;;;;;;;;;;5074552;28;20241;-67
2024/02/29 06:17:05;;;;;;;0.28;0.13;;;;;;;;;;5074278;28;20552;-67
2024/02/29 06:19:31;;;;;;;0.07;0.07;;;;;;;;;;5074306;28;20016;-67
2024/02/29 06:21:56;;;;;;;0.10;0.10;;;;;;;;;;5074189;28;20277;-67
2024/02/29 06:24:21;;;;;;;0.10;0.10;;;;;;;;;;5074361;28;20055;-67
2024/02/29 06:26:46;;;;;;;0.10;0.10;;;;;;;;;;5074071;28;20252;-67
2024/02/29 06:29:12;;;;;;;0.13;0.13;;;;;;;;;;5074335;28;20100;-67
2024/02/29 06:31:37;;;;;;;0.03;0.03;;;;;;;;;;5074303;28;20379;-67
2024/02/29 06:34:03;;;;;;;0.00;0.00;;;;;;;;;;5074036;28;20028;-67
2024/02/29 06:36:28;;;;;;;0.35;0.35;;;;;;;;;;5073924;28;20024;-67
2024/02/29 06:38:53;;;;;;;0.10;0.10;;;;;;;;;;5073976;28;20021;-67
2024/02/29 06:41:18;;;;;;;4.13;0.73;;;;;;;;;;5073765;28;20316;-67
2024/02/29 06:43:44;;;;;;;0.10;0.10;;;;;;;;;;5073751;28;20258;-67
2024/02/29 06:46:10;;;;;;;1.03;0.93;;;;;;;;;;5073748;28;20250;-67
2024/02/29 06:48:35;;;;;;;0.10;0.10;;;;;;;;;;5073626;28;20260;-67
2024/02/29 06:51:00;;;;;;;0.20;0.20;;;;;;;;;;5073697;28;20020;-67
2024/02/29 06:53:26;;;;;;;0.10;0.10;;;;;;;;;;5073633;28;20029;-67
2024/02/29 06:55:51;;;;;;;0.28;0.28;;;;;;;;;;5073633;28;20032;-67
2024/02/29 06:58:17;;;;;;;0.00;0.00;;;;;;;;;;5073950;28;20456;-67
2024/02/29 07:00:42;;;;;;;0.10;0.10;;;;;;;;;;5073425;28;20070;-67
2024/02/29 07:03:07;;;;;;;0.60;0.57;;;;;;;;;;5071137;28;20045;-67
2024/02/29 07:05:33;;;;;;;0.10;0.10;;;;;;;;;;5073533;28;20264;-67
2024/02/29 07:07:58;;;;;;;2.22;0.63;;;;;;;;;;5073720;28;20020;-67
2024/02/29 07:10:23;;;;;;;0.00;0.00;;;;;;;;;;5073473;28;20426;-67
2024/02/29 07:12:49;;;;;;;0.10;0.10;;;;;;;;;;5073558;28;20277;-67
2024/02/29 07:15:14;;;;;;;0.68;0.68;;;;;;;;;;5073320;28;20524;-67
2024/02/29 07:17:41;;;;;;;0.10;0.10;;;;;;;;;;5073327;28;20031;-67
2024/02/29 07:20:07;;;;;;;0.28;0.28;;;;;;;;;;5073436;28;20050;-67
2024/02/29 07:22:33;;;;;;;0.00;0.00;;;;;;;;;;5073279;28;20023;-67
2024/02/29 07:24:58;;;;;;;0.40;0.40;;;;;;;;;;5073544;28;20029;-67
2024/02/29 07:27:23;;;;;;;0.10;0.10;;;;;;;;;;5073164;28;20021;-67
2024/02/29 07:29:49;;;;;;;0.17;0.17;;;;;;;;;;5073188;28;20064;-67
2024/02/29 07:32:14;;;;;;;0.17;0.17;;;;;;;;;;5073173;28;20025;-67
2024/02/29 07:34:39;;;;;;;0.47;0.47;;;;;;;;;;5073120;28;20016;-67
2024/02/29 07:37:04;;;;;;;0.40;0.40;;;;;;;;;;5075828;28;20295;-67
2024/02/29 07:39:30;;;;;;;0.05;0.05;;;;;;;;;;5079871;28;20382;-67
2024/02/29 07:41:55;;;;;;;0.25;0.25;;;;;;;;;;5079571;28;20035;-67
2024/02/29 07:44:20;;;;;;;0.10;0.10;;;;;;;;;;5080786;28;20062;-68
2024/02/29 07:46:46;;;;;;;0.00;0.00;;;;;;;;;;5086781;28;20268;-67
2024/02/29 07:49:12;;;;;;;0.00;0.00;;;;;;;;;;5079261;28;20515;-67
2024/02/29 07:51:37;;;;;;;0.20;0.20;;;;;;;;;;5078717;28;20020;-67
2024/02/29 07:54:03;;;;;;;0.10;0.10;;;;;;;;;;5079078;28;20059;-67
2024/02/29 07:56:28;;;;;;;0.10;0.10;;;;;;;;;;5078685;28;20257;-67
2024/02/29 07:58:53;;;;;;;0.20;0.20;;;;;;;;;;5078331;28;20024;-67
2024/02/29 08:01:19;;;;;;;0.52;0.52;;;;;;;;;;5079227;28;20052;-67
2024/02/29 08:03:44;;;;;;;0.55;0.55;;;;;;;;;;5078826;28;20048;-67
2024/02/29 08:06:09;;;;;;;0.10;0.10;;;;;;;;;;5079350;28;20487;-67
2024/02/29 08:08:34;;;;;;;0.30;0.30;;;;;;;;;;5078855;28;20012;-69
2024/02/29 08:11:00;;;;;;;0.10;0.10;;;;;;;;;;5079237;28;20021;-69
2024/02/29 08:13:25;;;;;;;0.10;0.10;;;;;;;;;;5078054;28;20017;-69
2024/02/29 08:15:50;;;;;;;0.17;0.17;;;;;;;;;;5080733;28;20276;-71
2024/02/29 08:18:15;;;;;;;0.20;0.20;;;;;;;;;;5078986;28;20426;-71
2024/02/29 08:20:41;;;;;;;0.10;0.10;;;;;;;;;;5078990;28;20029;-71
2024/02/29 08:23:06;;;;;;;1.45;0.57;;;;;;;;;;5078836;28;20099;-71
2024/02/29 08:25:31;;;;;;;0.10;0.10;;;;;;;;;;5078720;28;20028;-71
2024/02/29 08:27:57;;;;;;;0.10;0.10;;;;;;;;;;5077949;28;20273;-71
2024/02/29 08:30:23;;;;;;;0.45;0.45;;;;;;;;;;5078877;28;20024;-70
2024/02/29 08:32:48;;;;;;;0.22;0.22;;;;;;;;;;5079174;28;20025;-71
2024/02/29 08:35:14;;;;;;;0.10;0.10;;;;;;;;;;5078721;28;20459;-71
2024/02/29 08:37:41;;;;;;;0.30;0.30;;;;;;;;;;5078584;28;20024;-71
2024/02/29 08:40:07;;;;;;;0.10;0.10;;;;;;;;;;5078600;28;20046;-71
2024/02/29 08:42:33;;;;;;;0.85;0.77;;;;;;;;;;5078181;28;20414;-71
2024/02/29 08:44:58;;;;;;;0.52;0.52;;;;;;;;;;5078649;28;20095;-71
2024/02/29 08:47:23;;;;;;;0.10;0.10;;;;;;;;;;5078622;28;20051;-71
2024/02/29 08:49:49;;;;;;;0.10;0.10;;;;;;;;;;5074479;28;20457;-71
2024/02/29 08:52:14;;;;;;;0.10;0.10;;;;;;;;;;5075498;28;20112;-71
2024/02/29 08:54:40;;;;;;;0.20;0.20;;;;;;;;;;5075211;28;20021;-71
2024/02/29 08:57:07;;;;;;;0.07;0.07;;;;;;;;;;5074865;28;20020;-71
2024/02/29 08:59:32;;;;;;;0.50;0.45;;;;;;;;;;5074985;28;20253;-72
2024/02/29 09:01:57;;;;;;;0.10;0.10;;;;;;;;;;5075351;28;20096;-71
2024/02/29 09:04:24;;;;;;;1.55;0.82;;;;;;;;;;5075048;28;20067;-71
2024/02/29 09:06:49;;;;;;;0.10;0.10;;;;;;;;;;5075508;28;20051;-71
2024/02/29 09:09:16;;;;;;;0.13;0.13;;;;;;;;;;5075476;28;20492;-71
2024/02/29 09:11:41;;;;;;;0.15;0.15;;;;;;;;;;5074622;28;20242;-71
2024/02/29 09:14:07;;;;;;;0.17;0.17;;;;;;;;;;5075042;28;20522;-72
2024/02/29 09:16:32;;;;;;;0.30;0.30;;;;;;;;;;5074924;28;20025;-72
2024/02/29 09:18:57;;;;;;;0.82;0.77;;;;;;;;;;5075293;28;20328;-70
2024/02/29 09:21:22;;;;;;;2.72;1.55;;;;;;;;;;5074984;28;20374;-69
2024/02/29 09:23:51;;;;;;;0.00;0.00;;;;;;;;;;5074859;28;20098;-69
2024/02/29 09:26:18;;;;;;;0.35;0.35;;;;;;;;;;5074962;28;20461;-69
2024/02/29 09:28:43;;;;;;;0.00;0.00;;;;;;;;;;5074173;28;20028;-69
2024/02/29 09:31:10;;;;;;;0.22;0.22;;;;;;;;;;5075017;28;20392;-69
2024/02/29 09:33:37;;;;;;;0.10;0.10;;;;;;;;;;5074587;28;20020;-69
2024/02/29 09:36:05;;;;;;;0.05;0.05;;;;;;;;;;5074682;28;20082;-69
2024/02/29 09:38:31;;;;;;;0.30;0.30;;;;;;;;;;5074730;28;20111;-69
2024/02/29 09:40:57;;;;;;;1.17;0.50;;;;;;;;;;5074710;28;20100;-69
2024/02/29 09:43:23;;;;;;;0.15;0.15;;;;;;;;;;5074014;28;20024;-69
2024/02/29 09:45:49;;;;;;;0.70;0.57;;;;;;;;;;5074360;28;20465;-69
2024/02/29 09:48:15;;;;;;;0.03;0.03;;;;;;;;;;5074723;28;20483;-69
2024/02/29 09:50:40;;;;;;;0.22;0.22;;;;;;;;;;5074410;28;20024;-69
2024/02/29 09:53:08;;;;;;;0.10;0.10;;;;;;;;;;5074390;28;20494;-69
2024/02/29 09:55:34;;;;;;;0.30;0.30;;;;;;;;;;5074357;28;20059;-69
2024/02/29 09:58:01;;;;;;;2.28;0.60;;;;;;;;;;5073543;28;20039;-69
2024/02/29 10:00:26;;;;;;;1.45;0.55;;;;;;;;;;5073475;28;20024;-69
2024/02/29 10:02:52;;;;;;;0.98;0.55;;;;;;;;;;5074032;28;20508;-69
2024/02/29 10:05:18;;;;;;;1.05;0.95;;;;;;;;;;5074245;28;20027;-69
2024/02/29 10:07:47;;;;;;;0.20;0.10;;;;;;;;;;5074221;28;20020;-69
2024/02/29 10:10:13;;;;;;;1.27;0.65;;;;;;;;;;5073971;28;20020;-69
2024/02/29 10:12:39;;;;;;;0.15;0.15;;;;;;;;;;5073131;28;20377;-69
2024/02/29 10:15:06;;;;;;;0.38;0.38;;;;;;;;;;5073829;28;20524;-69
2024/02/29 10:17:32;;;;;;;0.68;0.68;;;;;;;;;;5073954;28;20025;-69
2024/02/29 10:19:57;;;;;;;1.02;0.95;;;;;;;;;;5073766;28;20380;-69
2024/02/29 10:22:22;;;;;;;0.00;0.00;;;;;;;;;;5073600;28;20082;-69
2024/02/29 10:24:51;;;;;;;0.30;0.30;;;;;;;;;;5073895;28;20258;-69
2024/02/29 10:27:17;;;;;;;0.20;0.20;;;;;;;;;;5073174;28;20025;-69
2024/02/29 10:29:42;;;;;;;0.28;0.28;;;;;;;;;;5073552;28;20517;-70
2024/02/29 10:32:08;;;;;;;1.23;0.90;;;;;;;;;;5073781;28;20380;-71
2024/02/29 10:34:35;;;;;;;1.33;1.05;;;;;;;;;;5073270;28;20065;-72
2024/02/29 10:37:00;;;;;;;0.75;0.75;;;;;;;;;;5073816;28;20024;-71
2024/02/29 10:39:27;;;;;;;1.00;0.93;;;;;;;;;;5073259;28;20376;-72
2024/02/29 10:41:55;;;;;;;0.90;0.85;;;;;;;;;;5072899;28;20150;-71
2024/02/29 10:44:24;;;;;;;0.65;0.65;;;;;;;;;;5073230;28;20495;-71
2024/02/29 10:46:53;;;;;;;0.17;0.17;;;;;;;;;;5073453;28;20036;-71
2024/02/29 10:49:24;;;;;;;0.38;0.38;;;;;;;;;;5073300;28;20380;-69
2024/02/29 10:51:57;;;;;;;0.63;0.63;;;;;;;;;;5073131;28;20473;-75
2024/02/29 10:54:32;;;;;;;0.40;0.40;;;;;;;;;;5055495;28;20052;-76
2024/02/29 10:56:58;;;;;;;0.60;0.60;;;;;;;;;;5072498;28;20028;-71
2024/02/29 10:59:25;;;;;;;0.30;0.30;;;;;;;;;;5072819;28;20099;-71
2024/02/29 11:01:56;;;;;;;0.43;0.43;;;;;;;;;;5072929;28;20066;-71
2024/02/29 11:04:21;;;;;;;0.98;0.70;;;;;;;;;;5072611;28;20547;-71
2024/02/29 11:06:48;;;;;;;0.20;0.20;;;;;;;;;;5072919;28;20033;-72
2024/02/29 11:09:14;;;;;;;0.85;0.80;;;;;;;;;;5072961;28;20079;-71
2024/02/29 11:11:39;;;;;;;0.82;0.65;;;;;;;;;;5071391;28;20019;-72
2024/02/29 11:14:04;;;;;;;0.43;0.43;;;;;;;;;;5072653;28;20103;-71
2024/02/29 11:16:38;;;;;;;0.20;0.20;;;;;;;;;;5072593;28;20024;-71
2024/02/29 11:19:03;;;;;;;0.82;0.80;;;;;;;;;;5072888;28;20013;-72
2024/02/29 11:21:29;;;;;;;0.75;0.68;;;;;;;;;;5072751;28;20498;-72
2024/02/29 11:24:00;;;;;;;0.38;0.38;;;;;;;;;;5072778;28;20465;-71
2024/02/29 11:26:31;;;;;;;0.85;0.85;;;;;;;;;;5071918;28;20021;-72
2024/02/29 11:28:56;;;;;;;1.40;0.93;;;;;;;;;;5086054;28;20032;-71
2024/02/29 11:31:22;;;;;;;0.55;0.30;;;;;;;;;;5092664;28;20035;-71
2024/02/29 11:33:47;;;;;;;1.25;1.15;;;;;;;;;;5093028;28;20020;-71
2024/02/29 11:36:13;;;;;;;0.88;0.70;;;;;;;;;;5092966;28;20020;-72
2024/02/29 11:38:39;;;;;;;2.58;0.77;;;;;;;;;;5092975;28;20020;-71
2024/02/29 11:41:17;;;;;;;1.23;1.10;;;;;;;;;;5092468;28;20050;-71
2024/02/29 11:43:43;;;;;;;0.40;0.40;;;;;;;;;;5092654;28;20016;-71
2024/02/29 11:46:09;;;;;;;0.50;0.50;;;;;;;;;;5092794;28;20499;-71
2024/02/29 11:48:35;;;;;;;0.65;0.65;;;;;;;;;;5092861;28;20024;-71
2024/02/29 11:51:00;;;;;;;0.75;0.75;;;;;;;;;;5092953;28;20103;-72
2024/02/29 11:53:28;;;;;;;0.52;0.52;;;;;;;;;;5092511;28;20020;-72
2024/02/29 11:55:53;;;;;;;4.40;1.33;;;;;;;;;;5092072;28;20020;-72
2024/02/29 11:58:19;;;;;;;0.90;0.88;;;;;;;;;;5092425;28;20106;-71
2024/02/29 12:00:45;;;;;;;0.60;0.60;;;;;;;;;;5092650;28;20028;-71
2024/02/29 12:03:10;;;;;;;0.40;0.40;;;;;;;;;;5092471;28;20396;-72
2024/02/29 12:05:36;;;;;;;0.28;0.28;;;;;;;;;;5092509;28;20111;-71
2024/02/29 12:08:02;;;;;;;0.13;0.13;;;;;;;;;;5092868;28;20376;-71
2024/02/29 12:10:28;;;;;;;0.63;0.63;;;;;;;;;;5091791;28;20027;-71
2024/02/29 12:12:53;;;;;;;0.50;0.50;;;;;;;;;;5092425;28;20012;-70
2024/02/29 12:15:18;;;;;;;0.82;0.82;;;;;;;;;;5092444;28;20024;-75
2024/02/29 12:17:46;;;;;;;1.63;1.52;;;;;;;;;;5092277;28;20020;-76
2024/02/29 12:20:16;;;;;;;1.00;0.93;;;;;;;;;;5092537;28;20020;-71
2024/02/29 12:22:43;;;;;;;4.63;1.50;;;;;;;;;;5092779;28;20540;-71
2024/02/29 12:25:11;;;;;;;0.40;0.40;;;;;;;;;;5096010;28;20384;-71
2024/02/29 12:27:37;;;;;;;0.38;0.38;;;;;;;;;;5095821;28;20055;-71
2024/02/29 12:30:03;;;;;;;1.15;1.08;;;;;;;;;;5096266;28;20051;-71
2024/02/29 12:32:29;;;;;;;0.10;0.10;;;;;;;;;;5096113;28;20098;-71
2024/02/29 12:34:55;;;;;;;0.68;0.52;;;;;;;;;;5096105;28;20467;-72
2024/02/29 12:37:22;;;;;;;1.02;0.80;;;;;;;;;;5096149;28;20380;-71
2024/02/29 12:39:54;;;;;;;0.38;0.38;;;;;;;;;;5095672;28;20024;-71
2024/02/29 12:42:20;;;;;;;0.70;0.70;;;;;;;;;;5095668;28;20082;-71
2024/02/29 12:44:45;;;;;;;0.35;0.35;;;;;;;;;;5096092;28;20032;-71
2024/02/29 12:47:11;;;;;;;0.32;0.32;;;;;;;;;;5095817;28;20096;-71
2024/02/29 12:49:36;;;;;;;0.77;0.63;;;;;;;;;;5095779;28;20356;-69
2024/02/29 12:52:01;;;;;;;0.37;0.37;;;;;;;;;;5095164;28;20472;-69
2024/02/29 12:54:26;;;;;;;0.47;0.47;;;;;;;;;;5094834;28;20736;-69
2024/02/29 12:56:52;;;;;;;0.60;0.60;;;;;;;;;;5095240;28;20031;-69
2024/02/29 12:59:18;;;;;;;0.70;0.70;;;;;;;;;;5095576;28;20477;-69
2024/02/29 13:01:43;;;;;;;1.05;0.95;;;;;;;;;;5095068;28;20272;-69
2024/02/29 13:04:08;;;;;;;0.60;0.45;;;;;;;;;;5095058;28;20047;-69
2024/02/29 13:06:33;;;;;;;0.07;0.07;;;;;;;;;;5095270;28;20023;-69
2024/02/29 13:08:58;;;;;;;1.02;1.00;;;;;;;;;;5095273;28;20368;-69
2024/02/29 13:11:24;;;;;;;1.10;0.68;;;;;;;;;;5094726;28;20020;-69
2024/02/29 13:13:49;;;;;;;0.40;0.40;;;;;;;;;;5095652;28;20081;-69
2024/02/29 13:16:14;;;;;;;0.30;0.10;;;;;;;;;;5095403;28;20612;-69
2024/02/29 13:18:39;;;;;;;0.68;0.68;;;;;;;;;;5095013;28;20586;-69
2024/02/29 13:21:05;;;;;;;0.57;0.57;;;;;;;;;;5095172;28;20028;-69
2024/02/29 13:23:30;;;;;;;0.20;0.20;;;;;;;;;;5095174;28;20043;-69
2024/02/29 13:25:55;;;;;;;0.63;0.63;;;;;;;;;;5094629;28;20027;-68
2024/02/29 13:28:21;;;;;;;0.55;0.40;;;;;;;;;;5094904;28;20244;-68
2024/02/29 13:30:48;;;;;;;0.37;0.37;;;;;;;;;;5079525;28;20036;-69
2024/02/29 13:33:14;;;;;;;1.15;1.00;;;;;;;;;;5074808;28;20298;-69
2024/02/29 13:35:39;;;;;;;1.45;1.20;;;;;;;;;;5076106;28;20028;-69
2024/02/29 13:38:04;;;;;;;0.27;0.27;;;;;;;;;;5094903;28;20035;-69
2024/02/29 13:40:30;;;;;;;0.10;0.10;;;;;;;;;;5094088;28;20098;-69
2024/02/29 13:42:55;;;;;;;0.00;0.00;;;;;;;;;;5076517;28;20249;-68
2024/02/29 13:45:20;;;;;;;0.17;0.17;;;;;;;;;;5094714;28;20240;-68
2024/02/29 13:47:50;;;;;;;0.17;0.17;;;;;;;;;;5094621;28;20245;-69
2024/02/29 13:50:15;;;;;;;0.05;0.05;;;;;;;;;;5094977;28;20054;-69
2024/02/29 13:52:42;;;;;;;0.50;0.50;;;;;;;;;;5094208;28;20044;-69
2024/02/29 13:55:08;;;;;;;0.28;0.28;;;;;;;;;;5093990;28;20031;-69
2024/02/29 13:57:35;;;;;;;0.22;0.22;;;;;;;;;;5094312;28;20027;-69
2024/02/29 14:00:00;;;;;;;0.10;0.10;;;;;;;;;;5094476;28;20024;-72
2024/02/29 14:02:26;;;;;;;0.73;0.68;;;;;;;;;;5094118;28;20027;-75
2024/02/29 14:04:51;;;;;;;0.30;0.30;;;;;;;;;;5094240;28;20040;-75
2024/02/29 14:07:16;;;;;;;1.27;1.07;;;;;;;;;;5094039;28;20058;-75
2024/02/29 14:09:41;;;;;;;0.13;0.13;;;;;;;;;;5093637;28;20295;-71
2024/02/29 14:12:07;;;;;;;0.87;0.27;;;;;;;;;;5094190;28;20492;-71
2024/02/29 14:14:32;;;;;;;2.33;2.10;;;;;;;;;;5093947;28;20031;-71
2024/02/29 14:16:57;;;;;;;0.13;0.13;;;;;;;;;;5094177;28;20271;-71
2024/02/29 14:19:22;;;;;;;0.05;0.05;;;;;;;;;;5094212;28;20248;-71
2024/02/29 14:21:48;;;;;;;0.38;0.38;;;;;;;;;;5093982;28;20487;-71
2024/02/29 14:24:13;;;;;;;0.00;0.00;;;;;;;;;;5093575;28;20018;-71
2024/02/29 14:26:38;;;;;;;0.30;0.27;;;;;;;;;;5093839;28;20276;-71
2024/02/29 14:29:03;;;;;;;0.13;0.13;;;;;;;;;;5094026;28;20099;-71
2024/02/29 14:31:28;;;;;;;0.08;0.08;;;;;;;;;;5093690;28;20276;-71
2024/02/29 14:33:54;;;;;;;0.07;0.07;;;;;;;;;;5080017;28;20054;-71